Time;durP1;ratioP1;P1;durP2;ratioP2;P2;SDS_P1;SDS_P2;PMS_P1;PMS_P2;Temp;Humidity;BMP_temperature;BMP_pressure;BME280_temperature;BME280_humidity;BME280_pressure;Samples;Min_cycle;Max_cycle;Signal;HPM_P1;HPM_P2
2022/04/16 04:02:16;;;;;;;2.73;2.53;;;8.70;99.90;;;;;;5169895;23;21053;-79
2022/04/16 04:04:43;;;;;;;5.03;3.60;;;8.60;99.90;;;;;;4989321;28;20465;-80
2022/04/16 04:07:10;;;;;;;3.00;2.80;;;8.70;99.90;;;;;;4988920;28;20466;-79
2022/04/16 04:09:38;;;;;;;4.30;3.00;;;8.60;99.90;;;;;;4988928;28;20463;-79
2022/04/16 04:12:06;;;;;;;3.30;3.00;;;8.60;99.90;;;;;;4973670;28;20653;-79
2022/04/16 04:14:35;;;;;;;3.60;3.10;;;8.60;99.90;;;;;;4969670;28;20460;-80
2022/04/16 04:17:02;;;;;;;3.60;2.93;;;8.60;99.90;;;;;;4969083;28;20480;-79
2022/04/16 04:19:30;;;;;;;3.43;3.13;;;8.60;99.90;;;;;;4968982;28;20512;-80
2022/04/16 04:21:57;;;;;;;3.50;3.20;;;8.60;99.90;;;;;;4971582;28;20532;-80
2022/04/16 04:24:24;;;;;;;3.87;3.57;;;8.50;99.90;;;;;;4971397;28;20459;-80
2022/04/16 04:26:55;;;;;;;4.17;3.27;;;8.50;99.90;;;;;;4970141;28;20591;-80
2022/04/16 04:29:22;;;;;;;3.20;2.90;;;8.60;99.90;;;;;;4971178;28;20459;-80
2022/04/16 04:31:49;;;;;;;3.67;3.37;;;8.60;99.90;;;;;;4970213;28;20544;-80
2022/04/16 04:34:16;;;;;;;3.90;3.00;;;8.60;99.90;;;;;;4970855;28;20452;-80
2022/04/16 04:36:44;;;;;;;3.33;2.87;;;8.60;99.90;;;;;;4969856;28;20468;-80
2022/04/16 04:39:12;;;;;;;5.93;2.80;;;8.70;99.90;;;;;;4969929;28;20460;-80
2022/04/16 04:41:39;;;;;;;2.70;2.50;;;8.70;99.90;;;;;;4969907;28;20480;-80
2022/04/16 04:44:06;;;;;;;3.50;2.60;;;8.70;99.90;;;;;;4970920;28;20468;-80
2022/04/16 04:46:33;;;;;;;3.10;2.80;;;8.70;99.90;;;;;;4970911;28;20464;-80
2022/04/16 04:49:00;;;;;;;3.40;2.87;;;8.70;99.90;;;;;;4971959;28;20960;-80
2022/04/16 04:51:27;;;;;;;4.50;2.77;;;8.70;99.90;;;;;;4971099;28;20499;-80
2022/04/16 04:53:55;;;;;;;3.57;3.27;;;8.70;99.90;;;;;;4971065;28;20896;-80
2022/04/16 04:56:22;;;;;;;3.90;3.13;;;8.70;99.90;;;;;;4970631;28;20547;-80
2022/04/16 04:58:49;;;;;;;3.37;3.07;;;8.70;99.90;;;;;;4971740;28;20590;-80
2022/04/16 05:01:17;;;;;;;3.80;3.10;;;8.70;99.90;;;;;;4979844;28;20518;-81
2022/04/16 05:03:45;;;;;;;5.00;2.53;;;8.80;99.90;;;;;;4990104;28;20456;-81
2022/04/16 05:06:11;;;;;;;4.93;3.47;;;8.80;99.90;;;;;;4988903;28;20467;-81
2022/04/16 05:08:38;;;;;;;3.63;3.17;;;8.80;99.90;;;;;;4989945;28;20487;-82
2022/04/16 05:11:06;;;;;;;3.27;2.97;;;8.80;99.90;;;;;;4989594;28;20472;-81
2022/04/16 05:13:33;;;;;;;5.87;3.50;;;8.80;99.90;;;;;;4990244;28;21000;-81
2022/04/16 05:16:00;;;;;;;3.93;3.37;;;8.80;99.90;;;;;;4989371;28;20507;-82
2022/04/16 05:18:27;;;;;;;3.77;3.30;;;8.80;99.90;;;;;;4977989;28;20452;-80
2022/04/16 05:20:54;;;;;;;4.50;2.80;;;8.90;99.90;;;;;;4976073;28;20504;-80
2022/04/16 05:23:21;;;;;;;4.20;3.23;;;8.90;99.90;;;;;;4984422;28;20453;-80
2022/04/16 05:25:48;;;;;;;3.57;3.27;;;8.90;99.90;;;;;;4981159;28;20568;-80
2022/04/16 05:28:16;;;;;;;3.70;3.30;;;8.90;99.90;;;;;;4982825;28;20460;-80
2022/04/16 05:30:48;;;;;;;3.87;3.57;;;8.80;99.90;;;;;;4989582;28;20472;-80
2022/04/16 05:34:18;;;;;;;4.20;3.50;;;8.80;99.90;;;;;;4989682;28;20453;-81
2022/04/16 05:36:05;;;;;;;4.67;4.20;;;8.90;99.90;;;;;;4988480;28;20453;-83
2022/04/16 05:38:32;;;;;;;4.03;3.63;;;8.90;99.90;;;;;;4987091;28;20460;-80
2022/04/16 05:40:59;;;;;;;10.03;4.47;;;8.90;99.90;;;;;;4987940;28;20516;-78
2022/04/16 05:43:27;;;;;;;5.17;4.30;;;8.90;99.90;;;;;;4986934;28;20456;-80
2022/04/16 05:45:57;;;;;;;4.57;3.93;;;9.00;99.90;;;;;;4986002;28;20492;-83
2022/04/16 05:48:24;;;;;;;4.30;3.60;;;9.00;99.90;;;;;;4988311;28;20464;-84
2022/04/16 05:50:51;;;;;;;3.60;3.30;;;9.00;99.90;;;;;;4984390;28;20468;-82
2022/04/16 05:53:19;;;;;;;4.33;3.70;;;9.00;99.90;;;;;;4983073;28;20516;-80
2022/04/16 05:55:48;;;;;;;3.77;3.40;;;9.00;99.90;;;;;;4984602;28;20460;-84
2022/04/16 05:58:15;;;;;;;4.77;3.60;;;9.00;99.90;;;;;;4982217;28;20804;-81
2022/04/16 06:00:44;;;;;;;4.27;3.87;;;9.00;99.90;;;;;;4983573;28;20507;-82
2022/04/16 06:03:11;;;;;;;6.13;3.63;;;9.10;99.90;;;;;;4983778;28;20500;-84
2022/04/16 06:05:41;;;;;;;3.83;3.30;;;9.10;99.90;;;;;;4986106;28;21323;-83
2022/04/16 06:08:08;;;;;;;6.97;4.00;;;9.10;99.90;;;;;;4986281;28;20452;-81
2022/04/16 06:10:37;;;;;;;4.80;3.57;;;9.20;99.90;;;;;;4983589;28;20551;-83
2022/04/16 06:13:04;;;;;;;5.33;3.83;;;9.20;99.90;;;;;;4981116;28;20448;-81
2022/04/16 06:15:31;;;;;;;4.33;3.90;;;9.20;99.90;;;;;;4984962;28;20527;-84
2022/04/16 06:18:00;;;;;;;5.20;4.03;;;9.20;99.90;;;;;;4984786;28;20455;-82
2022/04/16 06:20:27;;;;;;;4.20;3.63;;;9.30;99.90;;;;;;4984056;28;20485;-81
2022/04/16 06:22:54;;;;;;;4.20;3.80;;;9.30;99.90;;;;;;4983280;28;20460;-83
2022/04/16 06:25:22;;;;;;;4.40;4.00;;;9.30;99.90;;;;;;4980699;28;20456;-83
2022/04/16 06:27:49;;;;;;;6.27;5.20;;;9.40;99.90;;;;;;4977753;28;20536;-84
2022/04/16 06:30:16;;;;;;;6.17;4.70;;;9.40;99.90;;;;;;4979815;28;20449;-80
2022/04/16 06:32:43;;;;;;;9.20;5.00;;;9.50;99.90;;;;;;4978989;28;20452;-80
2022/04/16 06:35:12;;;;;;;6.07;4.63;;;9.50;99.90;;;;;;4982083;28;20468;-83
2022/04/16 06:37:41;;;;;;;5.63;4.20;;;9.50;99.90;;;;;;4985869;28;20449;-83
2022/04/16 06:40:08;;;;;;;5.50;4.20;;;9.60;99.90;;;;;;4985008;28;20515;-83
2022/04/16 06:42:36;;;;;;;4.57;4.17;;;9.60;99.90;;;;;;4985212;28;21358;-84
2022/04/16 06:45:06;;;;;;;6.33;4.50;;;9.60;99.90;;;;;;4983373;28;20545;-82
2022/04/16 06:47:33;;;;;;;5.47;4.80;;;9.60;99.90;;;;;;4985234;28;20496;-81
2022/04/16 06:50:00;;;;;;;5.10;4.20;;;9.60;99.90;;;;;;4986228;28;20528;-84
2022/04/16 06:52:28;;;;;;;6.50;4.87;;;9.70;99.90;;;;;;4986179;28;20500;-84
2022/04/16 06:54:57;;;;;;;6.23;4.73;;;9.70;99.90;;;;;;4980764;28;20552;-79
2022/04/16 06:57:23;;;;;;;7.20;4.87;;;9.80;99.90;;;;;;4970879;28;20515;-80
2022/04/16 06:59:50;;;;;;;6.23;4.80;;;9.80;99.90;;;;;;4974371;28;20487;-79
2022/04/16 07:02:17;;;;;;;5.40;4.73;;;9.90;99.90;;;;;;4972032;28;21309;-80
2022/04/16 07:04:44;;;;;;;7.00;5.33;;;9.90;99.90;;;;;;4970568;28;20462;-79
2022/04/16 07:07:11;;;;;;;7.30;5.37;;;9.90;99.90;;;;;;4971346;28;20457;-80
2022/04/16 07:09:40;;;;;;;6.40;5.20;;;10.00;99.90;;;;;;4979185;28;20528;-80
2022/04/16 07:12:09;;;;;;;5.60;4.80;;;9.90;99.90;;;;;;4973060;28;20479;-81
2022/04/16 07:14:37;;;;;;;9.13;6.07;;;10.00;99.90;;;;;;4980026;28;20464;-80
2022/04/16 07:17:04;;;;;;;7.87;5.40;;;10.10;99.90;;;;;;4982462;28;20451;-81
2022/04/16 07:19:31;;;;;;;8.80;6.00;;;10.10;99.90;;;;;;4981289;28;20523;-80
2022/04/16 07:21:58;;;;;;;8.53;5.60;;;10.20;99.90;;;;;;4982566;28;20528;-81
2022/04/16 07:24:26;;;;;;;7.80;5.80;;;10.20;99.90;;;;;;4984028;28;20460;-81
2022/04/16 07:26:54;;;;;;;8.73;6.30;;;10.30;99.90;;;;;;4982805;28;20468;-82
2022/04/16 07:29:21;;;;;;;6.97;5.97;;;10.30;99.90;;;;;;4981054;28;20449;-81
2022/04/16 07:31:48;;;;;;;15.90;7.27;;;10.40;99.90;;;;;;4980216;28;20476;-80
2022/04/16 07:34:15;;;;;;;8.90;6.47;;;10.40;99.90;;;;;;4978979;28;20469;-81
2022/04/16 07:36:42;;;;;;;7.67;5.60;;;10.50;99.90;;;;;;4978384;28;20993;-80
2022/04/16 07:39:09;;;;;;;9.07;6.40;;;10.50;99.90;;;;;;4977445;28;20868;-82
2022/04/16 07:41:36;;;;;;;7.80;6.27;;;10.60;99.90;;;;;;4975843;28;20503;-78
2022/04/16 07:44:05;;;;;;;7.03;5.40;;;10.60;99.90;;;;;;4976827;28;20448;-82
2022/04/16 07:46:36;;;;;;;7.80;6.13;;;10.60;99.90;;;;;;4978948;28;20458;-81
2022/04/16 07:49:04;;;;;;;10.70;6.90;;;10.60;99.90;;;;;;4963947;28;20629;-77
2022/04/16 07:51:31;;;;;;;9.27;6.80;;;10.70;99.90;;;;;;4952401;28;20556;-79
2022/04/16 07:53:58;;;;;;;10.20;6.97;;;10.70;99.90;;;;;;4961644;28;20468;-81
2022/04/16 07:56:26;;;;;;;11.53;7.67;;;10.80;99.90;;;;;;4962917;28;20454;-77
2022/04/16 07:58:53;;;;;;;10.30;7.63;;;10.80;99.90;;;;;;4959468;28;20501;-80
2022/04/16 08:01:22;;;;;;;10.17;7.17;;;10.80;99.90;;;;;;4961665;28;20521;-81
2022/04/16 08:03:49;;;;;;;10.73;8.45;;;10.80;99.90;;;;;;4960542;28;20884;-81
2022/04/16 08:06:16;;;;;;;9.37;7.90;;;11.00;99.90;;;;;;4959207;28;20281;-81
2022/04/16 08:08:43;;;;;;;12.48;8.45;;;11.00;99.90;;;;;;4960029;28;20503;-81
2022/04/16 08:11:10;;;;;;;12.90;9.40;;;11.30;99.90;;;;;;4960718;28;21054;-81
2022/04/16 08:13:37;;;;;;;13.10;9.17;;;11.30;99.90;;;;;;4961874;28;20465;-82
2022/04/16 08:16:04;;;;;;;11.37;9.40;;;11.30;99.90;;;;;;4962016;28;20489;-82
2022/04/16 08:18:33;;;;;;;14.30;9.97;;;11.30;99.90;;;;;;4961259;28;20461;-81
2022/04/16 08:20:59;;;;;;;13.40;9.80;;;11.30;99.90;;;;;;4962072;28;20593;-81
2022/04/16 08:23:27;;;;;;;11.03;9.10;;;11.20;99.90;;;;;;4962866;28;20458;-81
2022/04/16 08:25:54;;;;;;;14.10;9.10;;;11.20;99.90;;;;;;4962489;29;20469;-81
2022/04/16 08:28:21;;;;;;;11.90;8.60;;;11.20;99.90;;;;;;4961698;28;20463;-81
2022/04/16 08:30:48;;;;;;;18.20;9.75;;;11.20;99.90;;;;;;4959254;28;20456;-81
2022/04/16 08:33:16;;;;;;;12.17;8.80;;;11.30;99.90;;;;;;4952750;28;20241;-78
2022/04/16 08:35:45;;;;;;;13.30;9.20;;;11.40;99.90;;;;;;4951362;28;20492;-78
2022/04/16 08:38:12;;;;;;;11.80;8.27;;;11.40;99.90;;;;;;4956773;28;20467;-79
2022/04/16 08:40:40;;;;;;;13.87;8.53;;;11.40;99.90;;;;;;4964726;28;20508;-80
2022/04/16 08:43:08;;;;;;;13.10;9.07;;;11.40;99.90;;;;;;4960235;28;20461;-79
2022/04/16 08:45:37;;;;;;;11.60;9.10;;;11.50;99.90;;;;;;4959389;28;20441;-82
2022/04/16 08:48:05;;;;;;;12.07;9.00;;;11.50;99.90;;;;;;4964584;28;20450;-82
2022/04/16 08:50:33;;;;;;;14.83;9.20;;;11.50;99.90;;;;;;4964247;28;20458;-82
2022/04/16 08:53:01;;;;;;;12.70;9.23;;;11.60;99.90;;;;;;4963917;28;20480;-82
2022/04/16 08:55:29;;;;;;;15.03;10.17;;;11.60;99.90;;;;;;4964702;28;20524;-82
2022/04/16 08:57:56;;;;;;;14.23;10.17;;;11.60;99.90;;;;;;4963973;29;20453;-81
2022/04/16 09:00:23;;;;;;;14.90;10.23;;;11.60;99.90;;;;;;4963013;28;20465;-82
2022/04/16 09:02:56;;;;;;;14.67;10.90;;;11.60;99.90;;;;;;4964886;29;20454;-82
2022/04/16 09:05:23;;;;;;;12.43;9.10;;;11.70;99.90;;;;;;4963684;29;20453;-81
2022/04/16 09:07:52;;;;;;;15.70;10.27;;;11.70;99.90;;;;;;4964014;28;20461;-81
2022/04/16 09:10:21;;;;;;;14.07;10.20;;;11.80;99.90;;;;;;4964970;29;20529;-81
2022/04/16 09:12:52;;;;;;;11.50;8.93;;;11.90;99.90;;;;;;4965818;29;20457;-81
2022/04/16 09:15:19;;;;;;;14.10;9.40;;;11.90;99.90;;;;;;4964650;28;20468;-81
2022/04/16 09:17:58;;;;;;;15.57;10.50;;;11.90;99.90;;;;;;4965752;28;20481;-81
2022/04/16 09:20:34;;;;;;;15.13;9.63;;;12.00;99.90;;;;;;4959395;29;20468;-83
2022/04/16 09:23:02;;;;;;;16.87;9.70;;;12.10;99.90;;;;;;4957575;28;20441;-68
2022/04/16 09:25:32;;;;;;;13.13;9.53;;;12.30;99.90;;;;;;4964720;28;20457;-82
2022/04/16 09:28:07;;;;;;;12.27;8.57;;;12.40;99.90;;;;;;4964548;28;20454;-83
2022/04/16 09:30:34;;;;;;;13.60;9.00;;;12.60;99.90;;;;;;4965235;28;20472;-83
2022/04/16 09:33:02;;;;;;;12.20;8.90;;;12.90;99.90;;;;;;4966377;28;20464;-82
2022/04/16 09:35:31;;;;;;;12.60;7.97;;;13.10;99.90;;;;;;4966376;28;20476;-82
2022/04/16 09:37:58;;;;;;;14.33;8.40;;;13.40;99.90;;;;;;4961648;28;20454;-82
2022/04/16 09:40:27;;;;;;;10.30;7.73;;;13.70;99.90;;;;;;4961978;28;20477;-82
2022/04/16 09:42:56;;;;;;;12.90;8.83;;;13.80;99.90;;;;;;4961620;28;20580;-82
2022/04/16 09:45:26;;;;;;;10.30;8.30;;;13.90;99.90;;;;;;4961993;28;20482;-81
2022/04/16 09:47:53;;;;;;;11.90;8.30;;;13.90;99.90;;;;;;4960254;28;20517;-82
2022/04/16 09:50:22;;;;;;;10.30;8.17;;;13.90;99.90;;;;;;4961275;28;20449;-83
2022/04/16 09:52:52;;;;;;;10.40;7.37;;;14.00;99.90;;;;;;4960610;28;20446;-81
2022/04/16 09:55:22;;;;;;;8.50;6.20;;;14.10;99.90;;;;;;4958063;28;20453;-81
2022/04/16 09:57:52;;;;;;;8.00;6.57;;;14.30;99.90;;;;;;4957874;28;20453;-81
2022/04/16 10:00:21;;;;;;;11.50;9.57;;;14.70;99.90;;;;;;4957669;28;20472;-82
2022/04/16 10:02:48;;;;;;;10.57;7.67;;;14.90;99.90;;;;;;4960014;28;20485;-82
2022/04/16 10:05:15;;;;;;;10.83;7.33;;;14.80;99.90;;;;;;4958461;28;20454;-82
2022/04/16 10:07:52;;;;;;;7.47;5.83;;;14.80;99.90;;;;;;4959274;28;20452;-83
2022/04/16 10:10:25;;;;;;;9.83;6.50;;;14.90;99.90;;;;;;4960404;28;20437;-83
2022/04/16 10:13:03;;;;;;;7.10;5.90;;;14.80;99.90;;;;;;4959459;28;20445;-81
2022/04/16 10:16:00;;;;;;;8.93;6.60;;;14.70;99.90;;;;;;4959993;28;20548;-80
2022/04/16 10:18:28;;;;;;;10.20;7.07;;;14.70;99.90;;;;;;4954459;28;20450;-72
2022/04/16 10:20:56;;;;;;;21.20;12.67;;;14.60;99.90;;;;;;4958470;28;20477;-82
2022/04/16 10:23:28;;;;;;;8.00;6.43;;;14.50;99.90;;;;;;4971079;29;20457;-83
2022/04/16 10:26:02;;;;;;;11.03;8.23;;;14.50;99.90;;;;;;4962603;28;20484;-82
2022/04/16 10:28:37;;;;;;;9.20;7.60;;;14.60;99.90;;;;;;4956018;28;20442;-67
2022/04/16 10:31:07;;;;;;;8.07;6.57;;;14.80;99.90;;;;;;4957438;28;20477;-83
2022/04/16 10:33:34;;;;;;;12.23;8.60;;;14.90;99.90;;;;;;4967061;28;20485;-80
2022/04/16 10:36:01;;;;;;;13.67;10.13;;;14.90;99.90;;;;;;4956841;28;20517;-81
2022/04/16 10:38:34;;;;;;;20.53;15.93;;;15.00;99.90;;;;;;4957760;28;20485;-82
2022/04/16 10:41:02;;;;;;;10.47;7.80;;;15.00;99.90;;;;;;4957333;29;20480;-81
2022/04/16 10:43:34;;;;;;;34.33;24.63;;;15.10;99.90;;;;;;4958110;28;20482;-81
2022/04/16 10:46:07;;;;;;;20.27;18.07;;;15.10;99.90;;;;;;4956212;29;20466;-69
2022/04/16 10:48:35;;;;;;;9.70;7.00;;;15.10;99.90;;;;;;4955130;29;20465;-80
2022/04/16 10:51:03;;;;;;;8.63;6.50;;;15.10;99.90;;;;;;4953921;28;20930;-67
2022/04/16 10:53:32;;;;;;;8.20;5.50;;;15.20;99.90;;;;;;4955330;28;20524;-81
2022/04/16 10:56:11;;;;;;;7.90;5.00;;;15.40;99.90;;;;;;4956507;28;20540;-81
2022/04/16 10:58:40;;;;;;;6.97;4.63;;;15.80;99.90;;;;;;4955792;28;20918;-81
2022/04/16 11:01:10;;;;;;;5.70;4.27;;;16.20;99.90;;;;;;4954613;28;20486;-81
2022/04/16 11:03:48;;;;;;;5.73;4.40;;;16.60;99.90;;;;;;4956472;28;20533;-81
2022/04/16 11:06:16;;;;;;;5.90;4.23;;;16.60;99.90;;;;;;4956437;28;20492;-81
2022/04/16 11:08:45;;;;;;;4.63;3.70;;;16.50;99.90;;;;;;4958070;28;20467;-81
2022/04/16 11:11:13;;;;;;;4.17;3.50;;;16.50;99.90;;;;;;4957556;28;20474;-81
2022/04/16 11:13:41;;;;;;;5.77;4.57;;;16.60;99.90;;;;;;4956631;28;20466;-81
2022/04/16 11:16:10;;;;;;;5.13;4.50;;;16.70;99.90;;;;;;4956641;28;21443;-79
2022/04/16 11:18:47;;;;;;;4.60;3.60;;;17.00;99.90;;;;;;4956596;28;20493;-80
2022/04/16 11:21:17;;;;;;;4.23;3.07;;;17.20;99.90;;;;;;4957625;28;20496;-80
2022/04/16 11:23:45;;;;;;;3.63;3.20;;;17.10;99.90;;;;;;4956824;28;20465;-80
2022/04/16 11:34:30;;;;;;;4.83;3.73;;;17.50;99.90;;;;;;4972691;29;20468;-81
2022/04/16 11:36:58;;;;;;;6.00;3.90;;;17.60;99.90;;;;;;4971525;28;20446;-79
2022/04/16 11:39:27;;;;;;;5.90;4.40;;;17.70;99.90;;;;;;4972455;28;20480;-80
2022/04/16 11:41:57;;;;;;;5.00;4.37;;;17.60;99.90;;;;;;4973641;28;20489;-82
2022/04/16 11:44:38;;;;;;;17.03;11.80;;;17.40;99.90;;;;;;4973094;28;20437;-83
2022/04/16 11:47:12;;;;;;;7.10;5.00;;;17.30;99.90;;;;;;4965391;29;20456;-83
2022/04/16 11:49:44;;;;;;;7.00;4.73;;;17.20;99.90;;;;;;4959195;28;20437;-82
2022/04/16 11:52:12;;;;;;;8.00;4.50;;;17.30;99.90;;;;;;4957692;28;20513;-67
2022/04/16 11:54:39;;;;;;;8.80;4.27;;;17.40;99.90;;;;;;4946868;28;20532;-66
2022/04/16 11:57:06;;;;;;;4.80;3.73;;;17.60;99.90;;;;;;4947372;28;21382;-68
2022/04/16 11:59:34;;;;;;;4.40;3.70;;;17.70;99.90;;;;;;4948133;28;20984;-67
2022/04/16 12:02:06;;;;;;;5.10;3.93;;;17.90;99.90;;;;;;4948965;28;20997;-67
2022/04/16 12:04:41;;;;;;;8.40;4.70;;;18.20;99.90;;;;;;4948777;28;20468;-67
2022/04/16 12:07:12;;;;;;;5.73;3.60;;;18.40;99.90;;;;;;4948096;28;20465;-67
2022/04/16 12:09:45;;;;;;;6.93;5.10;;;18.50;99.90;;;;;;4948356;28;20453;-67
2022/04/16 12:12:15;;;;;;;7.33;4.77;;;18.70;99.90;;;;;;4949192;28;20527;-67
2022/04/16 12:14:49;;;;;;;5.57;4.07;;;18.70;99.90;;;;;;4949007;28;20934;-67
2022/04/16 12:17:26;;;;;;;4.90;4.40;;;18.60;99.90;;;;;;4948274;28;20466;-67
2022/04/16 12:20:10;;;;;;;5.70;3.90;;;18.60;99.90;;;;;;4949100;28;20464;-67
2022/04/16 12:22:48;;;;;;;4.60;4.20;;;18.90;99.90;;;;;;4947332;28;21298;-67
2022/04/16 12:25:17;;;;;;;6.53;4.37;;;19.00;99.90;;;;;;4948922;28;20464;-67
2022/04/16 12:27:45;;;;;;;7.03;3.97;;;19.00;99.50;;;;;;4948968;28;20453;-67
2022/04/16 12:30:17;;;;;;;7.47;4.17;;;18.90;99.90;;;;;;4949253;28;20463;-67
2022/04/16 12:32:56;;;;;;;5.57;4.00;;;18.80;99.10;;;;;;4949087;28;20457;-67
2022/04/16 12:35:25;;;;;;;4.50;3.50;;;18.70;99.50;;;;;;4947989;28;20898;-67
2022/04/16 12:37:53;;;;;;;4.30;3.40;;;18.60;99.90;;;;;;4948734;28;20966;-68
2022/04/16 12:40:20;;;;;;;5.63;3.90;;;18.50;99.30;;;;;;4948668;28;20552;-66
2022/04/16 12:42:47;;;;;;;7.73;4.43;;;18.50;99.30;;;;;;4948626;28;20505;-66
2022/04/16 12:45:14;;;;;;;6.53;3.70;;;18.40;97.80;;;;;;4949227;28;20912;-66
2022/04/16 12:47:41;;;;;;;4.60;3.47;;;18.20;99.10;;;;;;4949164;28;20639;-67
2022/04/16 12:50:09;;;;;;;5.33;4.17;;;18.20;98.40;;;;;;4949124;28;20556;-67
2022/04/16 12:52:38;;;;;;;8.67;4.70;;;18.10;98.50;;;;;;4948032;28;20533;-71
2022/04/16 12:55:05;;;;;;;5.07;4.10;;;18.10;98.80;;;;;;4948365;28;20480;-67
2022/04/16 12:57:32;;;;;;;7.50;3.83;;;18.10;98.80;;;;;;4947121;28;20976;-67
2022/04/16 12:59:59;;;;;;;6.20;4.53;;;18.20;99.40;;;;;;4947143;28;20466;-67
2022/04/16 13:02:26;;;;;;;4.80;4.27;;;18.40;97.60;;;;;;4946869;28;20541;-67
2022/04/16 13:04:54;;;;;;;4.00;3.60;;;18.30;97.60;;;;;;4946324;28;20764;-65
2022/04/16 13:07:21;;;;;;;5.90;4.60;;;18.10;97.80;;;;;;4946496;28;20561;-66
2022/04/16 13:09:50;;;;;;;5.73;4.20;;;18.10;98.80;;;;;;4947543;28;20541;-68
2022/04/16 13:12:18;;;;;;;4.77;3.80;;;18.10;98.00;;;;;;4947246;28;20485;-68
2022/04/16 13:14:46;;;;;;;6.93;4.47;;;18.20;98.00;;;;;;4946987;28;20517;-68
2022/04/16 13:17:13;;;;;;;6.90;3.70;;;18.30;97.60;;;;;;4946155;28;20483;-68
2022/04/16 13:19:40;;;;;;;5.03;3.90;;;18.30;98.30;;;;;;4946987;28;20536;-66
2022/04/16 13:22:07;;;;;;;4.10;3.70;;;18.60;97.90;;;;;;4948290;28;20508;-66
2022/04/16 13:24:35;;;;;;;4.50;3.87;;;18.80;97.20;;;;;;4950348;28;20536;-66
2022/04/16 13:27:05;;;;;;;6.67;3.83;;;18.90;97.10;;;;;;4949995;28;20473;-68
2022/04/16 13:29:33;;;;;;;5.90;4.27;;;18.80;97.30;;;;;;4950369;28;20465;-67
2022/04/16 13:32:00;;;;;;;4.50;3.67;;;18.70;96.80;;;;;;4950005;28;20477;-66
2022/04/16 13:34:26;;;;;;;4.33;3.90;;;18.60;97.80;;;;;;4950137;28;20508;-67
2022/04/16 13:36:53;;;;;;;5.00;4.00;;;18.60;97.70;;;;;;4949475;28;20479;-67
2022/04/16 13:42:07;;;;;;;6.17;3.80;;;18.90;97.60;;;;;;4949833;29;20504;-68
2022/04/16 13:44:34;;;;;;;8.07;4.10;;;18.80;97.30;;;;;;4949660;28;21035;-70
2022/04/16 13:47:01;;;;;;;3.73;3.27;;;18.80;96.40;;;;;;4948836;28;20552;-67
2022/04/16 13:49:28;;;;;;;4.90;3.40;;;18.80;96.30;;;;;;4948387;28;20461;-67
2022/04/16 13:51:57;;;;;;;3.83;3.43;;;18.80;94.40;;;;;;4949215;28;20488;-66
2022/04/16 13:54:23;;;;;;;4.50;3.40;;;18.70;95.20;;;;;;4949782;28;20453;-66
2022/04/16 13:56:51;;;;;;;6.03;2.90;;;18.80;95.80;;;;;;4948567;28;20461;-66
2022/04/16 13:59:20;;;;;;;5.40;3.83;;;19.00;95.60;;;;;;4949399;28;20468;-68
2022/04/16 14:01:48;;;;;;;4.47;3.43;;;19.10;94.50;;;;;;4949410;28;20490;-69
2022/04/16 14:04:15;;;;;;;3.60;3.20;;;19.20;93.90;;;;;;4948041;28;20508;-67
2022/04/16 14:06:42;;;;;;;7.20;4.60;;;19.30;94.20;;;;;;4947952;28;20457;-68
2022/04/16 14:09:09;;;;;;;6.50;4.30;;;19.40;92.50;;;;;;4958446;28;20457;-68
2022/04/16 14:11:38;;;;;;;4.73;4.27;;;19.50;92.10;;;;;;4967352;28;20487;-68
2022/04/16 14:14:05;;;;;;;6.30;4.03;;;19.50;92.00;;;;;;4967344;28;20464;-67
2022/04/16 14:16:34;;;;;;;7.30;4.43;;;19.60;92.50;;;;;;4960568;28;20448;-68
2022/04/16 14:19:01;;;;;;;6.30;4.40;;;19.50;91.80;;;;;;4968033;28;20483;-68
2022/04/16 14:21:28;;;;;;;5.73;4.63;;;19.40;91.10;;;;;;4967453;28;20571;-69
2022/04/16 14:23:55;;;;;;;4.50;3.73;;;19.40;92.40;;;;;;4967328;28;20491;-69
2022/04/16 14:26:21;;;;;;;4.40;3.63;;;19.50;91.60;;;;;;4967054;28;20507;-69
2022/04/16 14:28:48;;;;;;;4.00;3.60;;;19.60;91.20;;;;;;4967269;28;20452;-68
2022/04/16 14:31:15;;;;;;;6.73;3.73;;;19.80;90.00;;;;;;4967323;28;20519;-67
2022/04/16 14:33:44;;;;;;;5.10;4.47;;;19.70;97.60;;;;;;4968031;28;20561;-69
2022/04/16 14:36:10;;;;;;;7.93;3.30;;;19.80;93.30;;;;;;4968324;28;20492;-67
2022/04/16 14:38:39;;;;;;;7.00;3.37;;;19.80;91.60;;;;;;4967146;28;20461;-69
2022/04/16 14:41:13;;;;;;;4.00;3.47;;;19.80;90.40;;;;;;4967431;28;21387;-68
2022/04/16 14:43:43;;;;;;;6.70;3.63;;;19.70;90.90;;;;;;4968700;28;21013;-68
2022/04/16 14:46:10;;;;;;;3.73;3.20;;;19.80;90.40;;;;;;4967339;28;20473;-69
2022/04/16 14:48:37;;;;;;;4.60;3.03;;;19.80;89.10;;;;;;4967521;28;20831;-66
2022/04/16 14:51:05;;;;;;;3.80;2.73;;;19.90;90.20;;;;;;4967738;28;20469;-68
2022/04/16 14:53:32;;;;;;;7.30;4.00;;;19.90;87.20;;;;;;4967022;28;20461;-67
2022/04/16 14:55:59;;;;;;;4.27;3.13;;;20.00;87.60;;;;;;4967692;28;21016;-67
2022/04/16 14:58:27;;;;;;;3.63;2.70;;;20.00;86.10;;;;;;4967106;28;20453;-67
2022/04/16 15:00:54;;;;;;;7.50;3.00;;;20.20;83.40;;;;;;4967528;28;20489;-68
2022/04/16 15:03:21;;;;;;;4.40;2.70;;;20.30;82.80;;;;;;4967502;28;20503;-68
2022/04/16 15:05:48;;;;;;;3.43;2.50;;;20.30;82.50;;;;;;4967613;28;20548;-67
2022/04/16 15:08:18;;;;;;;2.83;2.27;;;20.40;78.80;;;;;;4966024;28;20583;-67
2022/04/16 15:10:45;;;;;;;2.77;2.47;;;20.50;77.70;;;;;;4966649;28;20487;-67
2022/04/16 15:13:12;;;;;;;2.97;2.37;;;20.60;76.30;;;;;;4967430;28;20909;-67
2022/04/16 15:15:39;;;;;;;3.17;2.87;;;20.60;73.70;;;;;;4967271;28;20970;-67
2022/04/16 15:18:06;;;;;;;5.57;2.40;;;20.40;72.60;;;;;;4966404;28;20464;-67
2022/04/16 15:20:36;;;;;;;2.97;2.60;;;20.40;73.70;;;;;;4966286;28;20462;-67
2022/04/16 15:23:03;;;;;;;3.10;2.67;;;20.40;71.70;;;;;;4967623;28;20500;-70
2022/04/16 15:25:31;;;;;;;3.00;2.43;;;20.40;72.90;;;;;;4967247;28;20503;-70
2022/04/16 15:28:01;;;;;;;4.57;2.53;;;20.50;73.10;;;;;;4966832;28;20475;-68
2022/04/16 15:30:28;;;;;;;2.80;2.37;;;20.70;73.40;;;;;;4967105;28;20456;-68
2022/04/16 15:32:55;;;;;;;4.07;2.63;;;20.80;69.60;;;;;;4965248;28;20460;-68
2022/04/16 15:35:24;;;;;;;3.03;2.17;;;20.90;70.00;;;;;;4966309;28;20466;-68
2022/04/16 15:37:51;;;;;;;3.63;2.38;;;21.00;71.20;;;;;;4965221;28;20458;-68
2022/04/16 15:40:19;;;;;;;3.60;2.63;;;21.20;70.30;;;;;;4966229;28;20826;-68
2022/04/16 15:42:48;;;;;;;4.13;2.43;;;21.30;66.40;;;;;;4965805;28;20503;-68
2022/04/16 15:45:20;;;;;;;2.60;2.30;;;21.30;66.80;;;;;;4964889;28;20556;-69
2022/04/16 15:47:47;;;;;;;3.03;2.73;;;21.30;69.80;;;;;;4965291;28;20451;-68
2022/04/16 15:50:14;;;;;;;3.20;2.90;;;21.40;68.00;;;;;;4967010;28;21009;-67
2022/04/16 15:52:41;;;;;;;3.57;3.03;;;21.50;67.00;;;;;;4967051;28;20488;-67
2022/04/16 15:55:09;;;;;;;3.47;2.70;;;21.50;64.00;;;;;;4966896;28;20563;-68
2022/04/16 15:57:36;;;;;;;3.57;3.00;;;21.50;66.00;;;;;;4966321;28;20477;-68
2022/04/16 16:00:06;;;;;;;4.50;3.60;;;21.40;62.60;;;;;;4966729;28;20463;-67
2022/04/16 16:02:33;;;;;;;11.83;7.43;;;21.40;61.10;;;;;;4965994;28;21422;-67
2022/04/16 16:05:06;;;;;;;7.10;3.83;;;21.20;61.00;;;;;;4965801;28;20945;-68
2022/04/16 16:07:36;;;;;;;3.67;2.83;;;21.10;61.40;;;;;;4964962;28;20457;-69
2022/04/16 16:10:04;;;;;;;2.90;2.70;;;21.10;61.90;;;;;;4965966;28;20492;-69
2022/04/16 16:12:31;;;;;;;4.57;3.20;;;21.10;60.10;;;;;;4965280;28;20503;-67
2022/04/16 16:15:00;;;;;;;5.73;3.50;;;21.00;60.10;;;;;;4966976;28;20452;-68
2022/04/16 16:17:28;;;;;;;6.93;4.53;;;21.10;61.10;;;;;;4966111;28;20457;-68
2022/04/16 16:19:55;;;;;;;3.67;3.10;;;21.00;59.30;;;;;;4966124;28;20979;-76
2022/04/16 16:22:26;;;;;;;4.57;2.77;;;20.90;58.70;;;;;;4974930;28;20511;-81
2022/04/16 16:24:53;;;;;;;16.00;11.03;;;20.80;58.40;;;;;;4974240;28;21205;-80
2022/04/16 16:27:20;;;;;;;9.70;3.10;;;20.70;59.20;;;;;;4971337;28;20458;-79
2022/04/16 16:29:49;;;;;;;21.57;16.60;;;20.70;60.50;;;;;;4970121;28;21103;-80
2022/04/16 16:32:16;;;;;;;3.43;3.07;;;20.60;59.00;;;;;;4971714;28;20469;-80
2022/04/16 16:34:44;;;;;;;4.83;3.70;;;20.40;60.50;;;;;;4972230;28;20484;-80
2022/04/16 16:37:11;;;;;;;2.67;2.43;;;20.30;58.80;;;;;;4971525;28;20822;-80
2022/04/16 16:39:38;;;;;;;4.00;2.90;;;20.20;58.80;;;;;;4971306;28;20460;-80
2022/04/16 16:42:05;;;;;;;3.57;2.50;;;20.10;56.50;;;;;;4973745;28;20519;-81
2022/04/16 16:44:32;;;;;;;3.80;2.23;;;19.80;57.40;;;;;;4974750;28;20551;-81
2022/04/16 16:46:59;;;;;;;2.70;2.50;;;19.60;59.30;;;;;;4971788;28;20725;-81
2022/04/16 16:49:26;;;;;;;3.40;3.10;;;19.50;58.00;;;;;;4970585;28;20542;-81
2022/04/16 16:51:55;;;;;;;2.83;2.63;;;19.20;57.90;;;;;;4971317;28;20517;-81
2022/04/16 16:54:21;;;;;;;3.23;2.70;;;19.00;59.10;;;;;;4970961;28;20480;-81
2022/04/16 16:56:48;;;;;;;2.97;2.77;;;18.90;59.70;;;;;;4973140;28;20823;-81
2022/04/16 16:59:15;;;;;;;7.07;2.53;;;18.70;58.50;;;;;;4975582;28;20604;-81
2022/04/16 17:01:46;;;;;;;2.90;2.57;;;18.50;58.40;;;;;;4975418;28;20484;-81
2022/04/16 17:07:27;;;;;;;2.73;2.50;;;18.20;59.60;;;;;;4940211;28;20445;-81